Time;durP1;ratioP1;P1;durP2;ratioP2;P2;SDS_P1;SDS_P2;PMS_P1;PMS_P2;Temp;Humidity;BMP_temperature;BMP_pressure;BME280_temperature;BME280_humidity;BME280_pressure;Samples;Min_cycle;Max_cycle;Signal;HPM_P1;HPM_P2
2023/08/26 00:01:11;;;;;;;91.40;87.60;;;;;;;18.53;100.00;100693.19;5040547;28;20485;-40
2023/08/26 00:03:39;;;;;;;94.00;90.13;;;;;;;18.52;100.00;100694.25;5039805;28;20500;-41
2023/08/26 00:06:06;;;;;;;88.63;84.93;;;;;;;18.53;100.00;100695.91;5048135;28;20431;-41
2023/08/26 00:08:34;;;;;;;86.10;82.40;;;;;;;18.51;100.00;100699.91;5048487;28;20523;-43
2023/08/26 00:11:02;;;;;;;88.30;84.67;;;;;;;18.53;100.00;100703.19;5047929;28;20474;-40
2023/08/26 00:13:31;;;;;;;79.93;76.53;;;;;;;18.54;100.00;100704.81;5047381;28;20533;-41
2023/08/26 00:15:59;;;;;;;79.17;75.67;;;;;;;18.53;100.00;100701.31;5047971;28;20500;-40
2023/08/26 00:18:27;;;;;;;74.07;70.77;;;;;;;18.55;100.00;100701.84;5039095;28;20489;-41
2023/08/26 00:20:56;;;;;;;75.03;72.03;;;;;;;18.57;100.00;100691.66;5042739;28;20453;-43
2023/08/26 00:23:24;;;;;;;87.03;83.63;;;;;;;18.60;100.00;100690.31;5048123;28;20883;-44
2023/08/26 00:25:52;;;;;;;86.97;83.57;;;;;;;18.64;100.00;100686.03;5048554;28;20427;-41
2023/08/26 00:28:20;;;;;;;83.53;80.20;;;;;;;18.67;100.00;100683.66;5048140;28;20463;-43
2023/08/26 00:30:57;;;;;;;78.27;75.07;;;;;;;18.69;100.00;100676.13;5048085;28;20470;-40
2023/08/26 00:33:25;;;;;;;82.93;79.60;;;;;;;18.70;100.00;100671.53;5048742;28;20451;-43
2023/08/26 00:35:53;;;;;;;78.17;74.93;;;;;;;18.72;100.00;100667.53;5047968;28;20435;-40
2023/08/26 00:38:21;;;;;;;87.53;83.83;;;;;;;18.73;100.00;100660.22;5047947;28;20929;-42
2023/08/26 00:40:48;;;;;;;98.33;94.60;;;;;;;18.75;100.00;100666.22;5047890;28;20450;-41
2023/08/26 00:43:16;;;;;;;103.30;99.23;;;;;;;18.75;100.00;100667.03;5046658;28;21057;-40
2023/08/26 00:45:45;;;;;;;100.60;96.70;;;;;;;18.77;100.00;100667.59;5047836;28;20889;-40
2023/08/26 00:48:17;;;;;;;102.80;98.80;;;;;;;18.79;100.00;100670.84;5048000;28;20853;-42
2023/08/26 00:50:48;;;;;;;104.73;100.80;;;;;;;18.83;100.00;100664.94;5048409;28;20466;-41
2023/08/26 00:53:17;;;;;;;108.70;104.73;;;;;;;18.83;100.00;100654.94;5047395;28;20882;-44
2023/08/26 00:55:45;;;;;;;108.60;104.70;;;;;;;18.86;100.00;100649.03;5042508;28;20451;-42
2023/08/26 00:58:13;;;;;;;118.47;113.80;;;;;;;18.87;100.00;100645.28;5045408;28;20549;-41
2023/08/26 01:00:41;;;;;;;112.07;107.67;;;;;;;18.87;100.00;100656.09;5037400;28;20455;-40
2023/08/26 01:03:09;;;;;;;115.43;111.20;;;;;;;18.87;100.00;100652.56;5034697;28;20544;-42
2023/08/26 01:05:38;;;;;;;117.60;113.40;;;;;;;18.88;100.00;100657.69;5045348;28;20454;-42
2023/08/26 01:08:07;;;;;;;117.73;113.37;;;;;;;18.86;100.00;100646.34;5046601;28;20456;-42
2023/08/26 01:10:46;;;;;;;118.33;113.70;;;;;;;18.83;100.00;100638.72;5046128;28;20470;-41
2023/08/26 01:13:15;;;;;;;122.33;117.90;;;;;;;18.82;100.00;100630.91;5045558;28;20547;-40
2023/08/26 01:15:49;;;;;;;122.50;117.80;;;;;;;18.79;100.00;100633.00;5046986;28;20439;-40
2023/08/26 01:18:17;;;;;;;122.40;117.90;;;;;;;18.78;100.00;100644.09;5047021;28;20521;-42
2023/08/26 01:20:46;;;;;;;125.27;120.37;;;;;;;18.79;100.00;100640.28;5045592;28;20481;-43
2023/08/26 01:23:31;;;;;;;132.63;127.40;;;;;;;18.77;100.00;100643.28;5046284;28;20526;-40
2023/08/26 01:26:00;;;;;;;128.10;123.07;;;;;;;18.76;100.00;100651.59;5041433;28;20431;-43
2023/08/26 01:28:28;;;;;;;126.07;121.17;;;;;;;18.78;100.00;100657.59;5046469;28;20441;-44
2023/08/26 01:30:58;;;;;;;125.33;120.73;;;;;;;18.81;100.00;100653.56;5046936;28;20471;-42
2023/08/26 01:33:34;;;;;;;128.07;123.17;;;;;;;18.82;100.00;100660.63;5047688;28;20451;-41
2023/08/26 01:36:05;;;;;;;120.83;116.53;;;;;;;18.83;100.00;100659.53;5046979;28;20430;-40
2023/08/26 01:38:34;;;;;;;119.80;115.13;;;;;;;18.82;100.00;100657.91;5046885;28;20525;-40
2023/08/26 01:41:03;;;;;;;124.03;119.27;;;;;;;18.85;100.00;100655.50;5047211;28;20435;-40
2023/08/26 01:43:33;;;;;;;122.60;118.10;;;;;;;18.86;100.00;100649.03;5046767;28;20461;-41
2023/08/26 01:46:00;;;;;;;122.57;118.17;;;;;;;18.88;100.00;100649.59;5048942;28;20435;-43
2023/08/26 01:48:28;;;;;;;125.43;120.83;;;;;;;18.88;100.00;100646.06;5054828;28;20496;-45
2023/08/26 01:50:56;;;;;;;127.07;122.27;;;;;;;18.87;100.00;100641.75;5047396;28;20463;-42
2023/08/26 01:53:23;;;;;;;126.33;121.53;;;;;;;18.86;100.00;100640.94;5052669;28;20486;-41
2023/08/26 01:55:52;;;;;;;124.97;119.87;;;;;;;18.83;100.00;100625.22;5047468;28;20442;-42
2023/08/26 01:58:20;;;;;;;124.77;119.73;;;;;;;18.85;100.00;100619.56;5046446;28;20514;-46
2023/08/26 02:00:48;;;;;;;116.43;111.77;;;;;;;18.87;100.00;100622.84;5053904;28;20435;-45
2023/08/26 02:03:15;;;;;;;117.60;113.10;;;;;;;18.86;100.00;100630.13;5053073;28;20493;-41
2023/08/26 02:05:43;;;;;;;119.20;114.30;;;;;;;18.83;100.00;100625.22;5046765;28;20445;-45
2023/08/26 02:08:11;;;;;;;115.43;111.07;;;;;;;18.75;100.00;100622.97;5055882;28;20496;-40
2023/08/26 02:10:39;;;;;;;126.07;120.63;;;;;;;18.77;100.00;100618.94;5053774;28;20474;-43
2023/08/26 02:13:08;;;;;;;127.77;121.97;;;;;;;18.75;100.00;100609.47;5054457;28;20453;-45
2023/08/26 02:15:35;;;;;;;117.27;112.40;;;;;;;18.66;100.00;100611.81;5053966;28;20455;-42
2023/08/26 02:18:03;;;;;;;120.53;115.53;;;;;;;18.68;100.00;100609.66;5047170;28;20441;-40
2023/08/26 02:20:31;;;;;;;126.37;121.03;;;;;;;18.66;100.00;100606.41;5046864;28;20425;-46
2023/08/26 02:22:59;;;;;;;132.17;126.27;;;;;;;18.61;100.00;100609.03;5053879;28;20489;-42
2023/08/26 02:25:26;;;;;;;132.60;125.90;;;;;;;18.62;100.00;100601.75;5054154;28;20462;-42
2023/08/26 02:27:56;;;;;;;135.93;129.60;;;;;;;18.55;100.00;100606.50;5051811;28;20455;-40
2023/08/26 02:30:25;;;;;;;136.37;129.93;;;;;;;18.52;100.00;100598.91;5058115;28;20465;-48
2023/08/26 02:32:53;;;;;;;128.10;122.60;;;;;;;18.50;100.00;100606.47;5053545;28;20978;-41
2023/08/26 02:35:21;;;;;;;133.33;127.63;;;;;;;18.51;100.00;100594.59;5053943;28;20467;-43
2023/08/26 02:37:49;;;;;;;136.30;130.00;;;;;;;18.48;100.00;100593.19;5049934;28;20431;-43
2023/08/26 02:40:17;;;;;;;130.60;124.97;;;;;;;18.51;100.00;100592.72;5049136;28;21080;-43
2023/08/26 02:42:45;;;;;;;137.30;131.30;;;;;;;18.48;100.00;100593.19;5056858;28;20496;-43
2023/08/26 02:45:13;;;;;;;133.83;127.73;;;;;;;18.49;100.00;100588.63;5056876;28;20459;-42
2023/08/26 02:47:42;;;;;;;139.93;133.13;;;;;;;18.51;100.00;100591.91;5057153;28;20431;-43
2023/08/26 02:50:10;;;;;;;132.43;126.40;;;;;;;18.53;100.00;100595.16;5056188;28;20526;-44
2023/08/26 02:52:38;;;;;;;132.40;126.40;;;;;;;18.55;100.00;100591.13;5056720;28;20497;-41
2023/08/26 02:55:09;;;;;;;126.97;121.50;;;;;;;18.58;100.00;100595.22;5050587;28;20464;-47
2023/08/26 02:57:37;;;;;;;129.27;123.37;;;;;;;18.60;100.00;100596.63;5054208;28;21200;-44
2023/08/26 03:00:05;;;;;;;135.73;129.63;;;;;;;18.64;100.00;100602.31;5051610;28;20437;-42
2023/08/26 03:02:33;;;;;;;133.03;126.27;;;;;;;18.66;100.00;100595.59;5040211;28;21190;-43
2023/08/26 03:05:02;;;;;;;130.07;123.73;;;;;;;18.66;100.00;100583.97;5050914;28;20800;-42
2023/08/26 03:07:30;;;;;;;130.53;124.53;;;;;;;18.68;100.00;100592.63;5054666;28;20431;-43
2023/08/26 03:09:58;;;;;;;127.60;121.90;;;;;;;18.71;100.00;100586.72;5057364;28;20438;-45
2023/08/26 03:12:26;;;;;;;126.43;120.90;;;;;;;18.76;100.00;100589.47;5055934;28;20509;-41
2023/08/26 03:14:53;;;;;;;131.30;124.90;;;;;;;18.78;100.00;100590.06;5057347;28;20482;-44
2023/08/26 03:17:21;;;;;;;133.27;126.60;;;;;;;18.79;100.00;100584.38;5056637;28;20439;-42
2023/08/26 03:19:49;;;;;;;129.50;123.40;;;;;;;18.81;100.00;100588.72;5048949;28;20430;-44
2023/08/26 03:22:18;;;;;;;134.97;128.57;;;;;;;18.80;100.00;100585.22;5057395;28;20538;-42
2023/08/26 03:24:45;;;;;;;139.47;132.80;;;;;;;18.76;100.00;100574.09;5056340;28;20589;-45
2023/08/26 03:27:13;;;;;;;130.17;124.40;;;;;;;18.76;100.00;100562.47;5056619;28;20938;-44
2023/08/26 03:29:41;;;;;;;125.53;120.17;;;;;;;18.77;100.00;100558.69;5048027;28;20431;-41
2023/08/26 03:32:08;;;;;;;132.47;126.37;;;;;;;18.78;100.00;100561.16;5056133;28;20570;-43
2023/08/26 03:34:36;;;;;;;135.83;129.97;;;;;;;18.77;100.00;100558.69;5047962;28;20469;-44
2023/08/26 03:37:04;;;;;;;123.67;117.70;;;;;;;18.76;100.00;100548.94;5056995;28;20453;-41
2023/08/26 03:39:34;;;;;;;123.77;118.47;;;;;;;18.73;100.00;100546.75;5046765;28;20553;-42
2023/08/26 03:42:02;;;;;;;121.07;115.67;;;;;;;18.73;100.00;100546.75;5049718;28;20522;-47
2023/08/26 03:44:29;;;;;;;121.90;116.40;;;;;;;18.74;100.00;100543.81;5055387;28;20485;-45
2023/08/26 03:46:57;;;;;;;127.90;121.77;;;;;;;18.74;100.00;100537.59;5047601;28;20439;-42
2023/08/26 03:49:25;;;;;;;128.63;122.60;;;;;;;18.73;100.00;100542.19;5048890;28;20977;-42
2023/08/26 03:51:52;;;;;;;121.07;115.67;;;;;;;18.76;100.00;100551.66;5047826;28;20553;-42
2023/08/26 03:54:20;;;;;;;128.03;121.40;;;;;;;18.76;100.00;100551.66;5055178;28;20530;-43
2023/08/26 03:56:49;;;;;;;120.83;115.53;;;;;;;18.76;100.00;100543.56;5056268;28;21061;-46
2023/08/26 03:59:17;;;;;;;120.03;114.17;;;;;;;18.78;100.00;100549.53;5056822;28;20941;-47
2023/08/26 04:01:44;;;;;;;132.97;125.70;;;;;;;18.76;100.00;100536.25;5056201;28;20456;-42
2023/08/26 04:04:12;;;;;;;134.60;127.20;;;;;;;18.73;100.00;100528.66;5055536;28;20542;-45
2023/08/26 04:06:40;;;;;;;130.73;124.20;;;;;;;18.75;100.00;100533.84;5058763;28;20845;-47
2023/08/26 04:09:08;;;;;;;129.60;123.33;;;;;;;18.75;100.00;100539.25;5047592;28;20432;-42
2023/08/26 04:11:36;;;;;;;126.50;120.67;;;;;;;18.73;100.00;100546.75;5036215;28;20436;-40
2023/08/26 04:14:05;;;;;;;135.67;129.07;;;;;;;18.73;100.00;100542.19;5040348;28;20473;-42
2023/08/26 04:16:33;;;;;;;130.17;123.57;;;;;;;18.70;100.00;100539.16;5054275;28;20531;-43
2023/08/26 04:19:01;;;;;;;131.10;124.03;;;;;;;18.69;100.00;100549.19;5035450;28;20447;-44
2023/08/26 04:21:28;;;;;;;135.53;128.53;;;;;;;18.69;100.00;100549.19;5035769;28;20435;-43
2023/08/26 04:23:57;;;;;;;137.20;129.70;;;;;;;18.70;100.00;100547.28;5051670;28;20971;-43
2023/08/26 04:26:25;;;;;;;135.80;128.13;;;;;;;18.69;100.00;100549.19;5044913;28;20455;-41
2023/08/26 04:28:52;;;;;;;124.90;118.57;;;;;;;18.68;100.00;100550.25;5043950;28;20474;-46
2023/08/26 04:31:22;;;;;;;136.40;129.10;;;;;;;18.69;100.00;100548.34;5051734;28;20450;-41
2023/08/26 04:33:50;;;;;;;125.00;118.57;;;;;;;18.68;100.00;100544.00;5054093;28;20481;-44
2023/08/26 04:36:17;;;;;;;125.30;118.43;;;;;;;18.66;100.00;100551.56;5056311;28;20511;-43
2023/08/26 04:38:46;;;;;;;124.97;118.33;;;;;;;18.64;100.00;100557.22;5044509;28;20548;-44
2023/08/26 04:41:14;;;;;;;110.17;104.60;;;;;;;18.65;100.00;100560.72;5050502;28;20723;-41
2023/08/26 04:43:42;;;;;;;107.60;102.50;;;;;;;18.63;100.00;100561.00;5054891;28;20469;-41
2023/08/26 04:46:10;;;;;;;108.20;102.73;;;;;;;18.61;100.00;100557.72;5041025;28;20431;-42
2023/08/26 04:48:39;;;;;;;104.30;99.20;;;;;;;18.61;100.00;100562.28;5052409;28;20492;-42
2023/08/26 04:51:07;;;;;;;114.27;107.87;;;;;;;18.60;100.00;100560.69;5054926;28;20462;-41
2023/08/26 04:53:35;;;;;;;113.23;107.47;;;;;;;18.61;100.00;100562.28;5045844;28;20542;-46
2023/08/26 04:56:03;;;;;;;114.20;108.23;;;;;;;18.59;100.00;100557.16;5046853;28;20440;-42
2023/08/26 04:58:31;;;;;;;109.93;104.13;;;;;;;18.59;100.00;100556.34;5046868;28;20432;-41
2023/08/26 05:00:59;;;;;;;110.80;104.80;;;;;;;18.55;100.00;100572.22;5046653;28;20438;-42
2023/08/26 05:03:27;;;;;;;115.60;109.20;;;;;;;18.52;100.00;100553.00;5046485;28;20901;-42
2023/08/26 05:05:57;;;;;;;119.17;111.73;;;;;;;18.48;100.00;100570.78;5047944;28;20437;-42
2023/08/26 05:08:24;;;;;;;103.63;98.10;;;;;;;18.52;100.00;100561.13;5054959;28;20518;-43
2023/08/26 05:10:52;;;;;;;104.97;99.20;;;;;;;18.63;100.00;100571.81;5055398;28;20459;-42
2023/08/26 05:13:19;;;;;;;95.07;89.80;;;;;;;18.72;100.00;100564.06;5055002;28;20592;-47
2023/08/26 05:15:47;;;;;;;85.83;81.10;;;;;;;18.71;100.00;100576.75;5054967;28;20454;-42
2023/08/26 05:18:15;;;;;;;85.87;81.57;;;;;;;18.73;100.00;100574.59;5054911;28;20538;-41
2023/08/26 05:20:44;;;;;;;90.77;86.10;;;;;;;18.72;100.00;100578.38;5056138;28;20434;-43
2023/08/26 05:23:14;;;;;;;94.83;89.63;;;;;;;18.67;100.00;100585.59;5054620;28;20505;-47
2023/08/26 05:25:44;;;;;;;90.43;85.80;;;;;;;18.68;100.00;100584.53;5053629;28;20442;-45
2023/08/26 05:28:12;;;;;;;90.03;85.40;;;;;;;18.68;100.00;100592.63;5055224;28;20439;-43
2023/08/26 05:30:40;;;;;;;88.37;83.33;;;;;;;18.66;100.00;100605.59;5055321;28;20518;-42
2023/08/26 05:33:08;;;;;;;88.67;84.50;;;;;;;18.65;100.00;100604.75;5054060;28;20478;-44
2023/08/26 05:35:35;;;;;;;99.53;93.83;;;;;;;18.62;100.00;100616.06;5055134;28;20458;-43
2023/08/26 05:38:03;;;;;;;93.60;88.50;;;;;;;18.55;100.00;100610.03;5054451;28;20453;-43
2023/08/26 05:40:33;;;;;;;89.90;85.70;;;;;;;18.45;100.00;100604.50;5054219;28;20431;-41
2023/08/26 05:43:01;;;;;;;54.80;52.20;;;;;;;18.33;100.00;100606.50;5053699;28;21124;-40
2023/08/26 05:45:29;;;;;;;56.17;53.63;;;;;;;18.31;100.00;100600.53;5054428;28;20469;-40
2023/08/26 05:47:56;;;;;;;45.93;43.93;;;;;;;18.27;100.00;100594.00;5046252;28;20431;-44
2023/08/26 05:50:25;;;;;;;49.23;46.83;;;;;;;18.28;100.00;100602.94;5054201;28;20942;-44
2023/08/26 05:52:53;;;;;;;47.57;45.50;;;;;;;18.24;100.00;100597.22;5054510;28;20524;-43
2023/08/26 05:55:21;;;;;;;42.07;40.17;;;;;;;18.18;100.00;100595.50;5047488;28;20541;-47
2023/08/26 05:57:50;;;;;;;41.50;39.80;;;;;;;18.16;100.00;100595.75;5046203;28;20494;-42
2023/08/26 06:00:18;;;;;;;41.47;39.67;;;;;;;18.15;100.00;100596.81;5048875;28;20450;-45
2023/08/26 06:02:45;;;;;;;43.43;41.63;;;;;;;18.17;100.00;100608.19;5049595;28;21000;-43
2023/08/26 06:05:13;;;;;;;46.87;44.87;;;;;;;18.23;100.00;100609.06;5053255;28;20464;-41
2023/08/26 06:07:41;;;;;;;47.40;45.50;;;;;;;18.31;100.00;100614.03;5055091;28;20928;-43
2023/08/26 06:10:09;;;;;;;54.00;51.20;;;;;;;18.43;100.00;100616.63;5051966;28;20430;-43
2023/08/26 06:12:37;;;;;;;54.37;51.97;;;;;;;18.47;100.00;100620.44;5058652;28;20478;-43
2023/08/26 06:15:07;;;;;;;51.27;49.03;;;;;;;18.47;100.00;100618.56;5057494;28;20455;-42
2023/08/26 06:17:35;;;;;;;47.07;44.97;;;;;;;18.54;100.00;100611.13;5059962;28;20434;-42
2023/08/26 06:20:04;;;;;;;48.57;46.23;;;;;;;18.67;100.00;100612.59;5060258;28;20442;-47
2023/08/26 06:22:31;;;;;;;49.13;46.93;;;;;;;18.75;100.00;100598.66;5058660;28;20478;-42
2023/08/26 06:25:00;;;;;;;48.20;46.10;;;;;;;18.84;100.00;100607.97;5059640;28;20455;-42
2023/08/26 06:27:28;;;;;;;45.70;43.70;;;;;;;18.91;100.00;100605.84;5060041;28;20426;-44
2023/08/26 06:29:58;;;;;;;43.93;42.17;;;;;;;19.04;100.00;100608.16;5059377;28;20466;-47
2023/08/26 06:32:27;;;;;;;49.77;47.50;;;;;;;19.12;100.00;100609.56;5058611;28;20453;-42
2023/08/26 06:34:54;;;;;;;42.20;40.50;;;;;;;19.20;100.00;100622.66;5033736;28;20660;-44
2023/08/26 06:37:22;;;;;;;39.57;37.97;;;;;;;19.28;100.00;100619.47;5059381;28;20462;-43
2023/08/26 06:39:50;;;;;;;42.57;40.57;;;;;;;19.49;100.00;100618.59;5057638;28;20462;-42
2023/08/26 06:42:18;;;;;;;38.43;36.93;;;;;;;19.77;100.00;100622.88;5058142;28;20454;-47
2023/08/26 06:44:45;;;;;;;38.60;36.93;;;;;;;19.91;100.00;100618.66;5059313;28;20454;-44
2023/08/26 06:47:13;;;;;;;40.13;38.53;;;;;;;20.13;100.00;100616.59;5058325;28;20438;-42
2023/08/26 06:49:43;;;;;;;38.30;36.60;;;;;;;20.36;100.00;100612.72;5051079;28;20442;-44
2023/08/26 06:52:11;;;;;;;39.50;37.70;;;;;;;20.57;100.00;100616.31;5058274;28;20454;-42
2023/08/26 06:54:39;;;;;;;39.87;37.60;;;;;;;20.68;100.00;100612.56;5057944;28;20482;-45
2023/08/26 06:57:06;;;;;;;38.23;36.53;;;;;;;21.09;100.00;100611.59;5058451;28;20473;-44
2023/08/26 06:59:34;;;;;;;39.70;37.53;;;;;;;22.19;100.00;100612.63;5057921;28;20462;-43
2023/08/26 07:02:02;;;;;;;37.47;35.83;;;;;;;22.55;100.00;100610.59;5058516;28;20508;-43
2023/08/26 07:04:30;;;;;;;38.73;36.53;;;;;;;22.78;100.00;100614.63;5057214;28;20458;-45
2023/08/26 07:06:59;;;;;;;39.07;37.40;;;;;;;23.52;100.00;100606.25;5050933;28;20514;-44
2023/08/26 07:09:27;;;;;;;39.87;38.03;;;;;;;23.60;100.00;100605.63;5058998;28;20435;-43
2023/08/26 07:11:54;;;;;;;37.40;35.70;;;;;;;24.49;100.00;100601.44;5058420;28;20423;-43
2023/08/26 07:14:22;;;;;;;36.20;34.60;;;;;;;24.44;100.00;100607.75;5056855;28;20455;-40
2023/08/26 07:16:50;;;;;;;36.60;35.10;;;;;;;24.37;100.00;100610.00;5056725;28;20455;-44
2023/08/26 07:19:17;;;;;;;33.43;32.13;;;;;;;24.21;100.00;100606.69;5052205;28;20470;-46
2023/08/26 07:21:46;;;;;;;35.90;34.57;;;;;;;24.21;100.00;100609.41;5058555;28;20521;-43
2023/08/26 07:24:15;;;;;;;34.93;33.60;;;;;;;24.88;100.00;100615.66;5056332;28;21064;-43
2023/08/26 07:26:42;;;;;;;32.70;31.07;;;;;;;24.90;100.00;100609.91;5057716;28;20434;-45
2023/08/26 07:29:10;;;;;;;31.43;30.17;;;;;;;24.58;100.00;100603.22;5052079;28;20469;-43
2023/08/26 07:31:38;;;;;;;31.40;29.87;;;;;;;24.48;100.00;100608.81;5057523;28;20446;-45
2023/08/26 07:34:06;;;;;;;29.57;28.37;;;;;;;24.13;100.00;100609.22;5050699;28;20470;-44
2023/08/26 07:36:33;;;;;;;28.67;27.33;;;;;;;23.85;100.00;100610.84;5057940;28;20462;-44
2023/08/26 07:39:01;;;;;;;29.97;28.77;;;;;;;23.85;100.00;100615.47;5057986;28;20493;-43
2023/08/26 07:41:31;;;;;;;28.33;27.13;;;;;;;23.73;100.00;100615.03;5056555;28;20881;-45
2023/08/26 07:43:58;;;;;;;31.30;30.00;;;;;;;23.38;100.00;100627.03;5055733;28;20471;-44
2023/08/26 07:46:26;;;;;;;29.67;27.97;;;;;;;23.14;100.00;100629.63;5057605;28;20447;-48
2023/08/26 07:48:57;;;;;;;30.40;28.70;;;;;;;22.93;100.00;100639.00;5051653;28;20523;-47
2023/08/26 07:51:24;;;;;;;29.37;27.80;;;;;;;22.53;100.00;100640.78;5057689;28;20441;-42
2023/08/26 07:53:52;;;;;;;31.80;29.97;;;;;;;22.49;100.00;100639.72;5058592;28;20481;-43
2023/08/26 07:56:20;;;;;;;29.83;27.83;;;;;;;22.50;100.00;100652.22;5057934;28;20435;-42
2023/08/26 07:58:49;;;;;;;30.33;28.50;;;;;;;22.30;100.00;100649.56;5054348;28;20423;-42
2023/08/26 08:01:17;;;;;;;27.93;26.83;;;;;;;22.29;100.00;100655.25;5049937;28;20872;-43
2023/08/26 08:03:45;;;;;;;30.00;28.27;;;;;;;22.14;100.00;100656.13;5054406;28;20541;-44
2023/08/26 08:06:12;;;;;;;27.03;26.03;;;;;;;22.17;100.00;100660.19;5051000;28;20516;-44
2023/08/26 08:08:40;;;;;;;28.50;27.30;;;;;;;22.47;100.00;100660.09;5050105;28;20794;-42
2023/08/26 08:11:08;;;;;;;30.23;29.03;;;;;;;22.95;100.00;100659.38;5046785;28;20519;-43
2023/08/26 08:13:35;;;;;;;28.70;27.50;;;;;;;23.36;100.00;100659.94;5049353;28;20443;-42
2023/08/26 08:16:04;;;;;;;29.70;28.50;;;;;;;23.65;100.00;100657.31;5044173;28;20490;-45
2023/08/26 08:18:32;;;;;;;29.37;28.20;;;;;;;23.86;100.00;100656.06;5044976;28;20431;-43
2023/08/26 08:21:00;;;;;;;29.50;28.40;;;;;;;23.83;100.00;100651.19;5047211;28;20485;-43
2023/08/26 08:23:27;;;;;;;28.53;27.33;;;;;;;24.21;100.00;100657.63;5044479;28;20472;-42
2023/08/26 08:25:55;;;;;;;27.67;26.47;;;;;;;24.54;100.00;100664.91;5049722;28;20899;-44
2023/08/26 08:28:22;;;;;;;26.93;25.73;;;;;;;24.34;100.00;100661.59;5047758;28;20431;-42
2023/08/26 08:30:50;;;;;;;25.73;24.83;;;;;;;24.16;100.00;100677.56;5049329;28;20521;-45
2023/08/26 08:33:19;;;;;;;26.17;25.07;;;;;;;24.08;100.00;100680.06;5049659;28;20807;-44
2023/08/26 08:35:47;;;;;;;25.33;24.33;;;;;;;24.03;100.00;100678.22;5049006;28;20835;-46
2023/08/26 08:38:15;;;;;;;26.67;25.67;;;;;;;24.37;100.00;100678.16;5049964;28;20437;-45
2023/08/26 08:40:43;;;;;;;23.67;22.87;;;;;;;24.46;100.00;100676.41;5049703;28;21045;-42
2023/08/26 08:43:12;;;;;;;22.07;21.17;;;;;;;24.53;100.00;100671.44;5047757;28;20459;-43
2023/08/26 08:45:41;;;;;;;22.43;21.60;;;;;;;24.09;100.00;100674.34;5046498;28;20455;-46
2023/08/26 08:48:09;;;;;;;22.43;21.33;;;;;;;24.08;100.00;100677.34;5049393;28;20480;-43
2023/08/26 08:50:39;;;;;;;23.00;22.07;;;;;;;24.04;100.00;100684.50;5049512;28;20441;-46
2023/08/26 08:53:07;;;;;;;21.70;20.77;;;;;;;24.38;100.00;100682.50;5048240;28;20482;-47
2023/08/26 08:55:35;;;;;;;21.07;20.17;;;;;;;24.43;100.00;100690.63;5049875;28;20883;-47
2023/08/26 08:58:04;;;;;;;20.93;20.20;;;;;;;24.73;100.00;100681.28;5049528;28;20798;-46
2023/08/26 09:00:32;;;;;;;18.80;17.83;;;;;;;24.94;100.00;100679.94;5043675;28;20529;-42
2023/08/26 09:03:06;;;;;;;14.07;13.47;;;;;;;24.95;100.00;100678.03;5049219;28;20998;-49
2023/08/26 09:05:33;;;;;;;11.73;11.23;;;;;;;25.30;100.00;100675.63;5048566;28;20451;-43
2023/08/26 09:08:02;;;;;;;12.03;11.40;;;;;;;25.07;100.00;100678.41;5049094;28;20435;-44
2023/08/26 09:10:30;;;;;;;11.47;10.97;;;;;;;24.61;100.00;100676.25;5049596;28;20465;-42
2023/08/26 09:12:58;;;;;;;10.63;10.13;;;;;;;24.06;100.00;100679.56;5049167;28;20455;-43
2023/08/26 09:15:26;;;;;;;10.80;10.23;;;;;;;24.05;100.00;100680.63;5048215;28;21053;-41
2023/08/26 09:17:58;;;;;;;9.93;9.50;;;;;;;24.11;100.00;100679.53;5046521;28;20969;-45
2023/08/26 09:20:28;;;;;;;9.87;9.47;;;;;;;24.22;100.00;100673.69;5048853;28;20516;-42
2023/08/26 09:23:05;;;;;;;9.97;9.67;;;;;;;24.62;100.00;100677.88;5048685;28;20455;-46
2023/08/26 09:25:33;;;;;;;7.90;7.60;;;;;;;24.72;100.00;100685.94;5048949;28;20451;-45
2023/08/26 09:28:01;;;;;;;6.60;6.00;;;;;;;24.72;85.33;100688.69;5039991;28;20462;-43
2023/08/26 09:30:28;;;;;;;6.37;6.07;;;;;;;24.73;88.41;100682.09;5048871;28;20470;-44
2023/08/26 09:32:56;;;;;;;6.57;6.00;;;;;;;24.65;92.40;100690.94;5048297;28;20451;-42
2023/08/26 09:35:24;;;;;;;6.73;6.27;;;;;;;24.89;94.77;100682.75;5050793;28;21016;-43
2023/08/26 09:37:59;;;;;;;5.40;5.20;;;;;;;25.00;91.20;100688.91;5055322;28;20446;-46
2023/08/26 09:40:30;;;;;;;7.17;6.47;;;;;;;24.93;89.24;100685.72;5050990;28;20434;-45
2023/08/26 09:43:03;;;;;;;5.70;5.20;;;;;;;24.78;87.57;100692.97;5054092;28;20449;-42
2023/08/26 09:45:36;;;;;;;5.33;5.13;;;;;;;24.92;89.93;100697.72;5047404;28;20455;-41
2023/08/26 09:48:05;;;;;;;4.70;4.50;;;;;;;24.61;76.53;100698.06;5053103;28;20556;-43
2023/08/26 09:50:34;;;;;;;4.77;4.57;;;;;;;24.58;78.22;100697.84;5052984;28;20513;-46
2023/08/26 09:53:02;;;;;;;4.53;4.23;;;;;;;24.29;76.88;100692.41;5053190;28;20455;-45
2023/08/26 09:55:33;;;;;;;4.70;4.30;;;;;;;23.94;69.04;100701.72;5053292;28;20566;-44
2023/08/26 09:58:01;;;;;;;4.10;3.90;;;;;;;23.85;71.70;100700.72;5053165;28;20512;-46
2023/08/26 10:00:30;;;;;;;4.07;3.87;;;;;;;23.63;66.90;100700.34;5046757;28;20471;-45
2023/08/26 10:03:02;;;;;;;3.90;3.60;;;;;;;23.71;71.43;100709.81;5051374;28;20469;-42
2023/08/26 10:05:33;;;;;;;3.87;3.67;;;;;;;23.76;70.67;100710.59;5046773;28;20463;-46
2023/08/26 10:08:05;;;;;;;4.10;3.70;;;;;;;23.79;71.67;100718.19;5043930;28;20514;-43
2023/08/26 10:10:43;;;;;;;4.00;3.80;;;;;;;23.69;70.38;100723.69;5053585;28;20516;-45
2023/08/26 10:13:11;;;;;;;3.50;3.30;;;;;;;23.68;71.15;100713.94;5052118;28;20476;-43
2023/08/26 10:15:39;;;;;;;3.67;3.47;;;;;;;23.72;74.55;100712.25;5051670;28;20472;-46
2023/08/26 10:18:12;;;;;;;3.60;3.30;;;;;;;23.71;74.13;100720.72;5051998;28;20422;-43
2023/08/26 10:20:41;;;;;;;4.07;3.87;;;;;;;23.73;74.88;100727.50;5051953;28;20431;-44
2023/08/26 10:23:11;;;;;;;3.90;3.60;;;;;;;23.61;71.90;100727.84;5051939;28;20446;-45
2023/08/26 10:25:40;;;;;;;4.53;4.13;;;;;;;23.74;71.74;100726.41;5052683;28;20450;-46
2023/08/26 10:28:11;;;;;;;3.37;3.27;;;;;;;23.62;68.64;100726.75;5049286;28;20440;-44
2023/08/26 10:30:38;;;;;;;3.30;3.10;;;;;;;23.55;68.42;100737.16;5041352;28;20471;-43
2023/08/26 10:33:06;;;;;;;4.50;4.10;;;;;;;23.57;68.98;100728.69;5052042;28;20492;-44
2023/08/26 10:35:34;;;;;;;3.67;3.57;;;;;;;23.67;71.86;100737.63;5052519;28;20470;-43
2023/08/26 10:38:09;;;;;;;5.43;3.47;;;;;;;23.89;75.03;100728.19;5051862;28;20488;-42
2023/08/26 10:40:37;;;;;;;5.23;3.40;;;;;;;23.95;73.64;100716.97;5052211;28;20861;-45
2023/08/26 10:43:07;;;;;;;4.03;3.27;;;;;;;23.72;72.40;100746.81;5052419;28;20537;-46
2023/08/26 10:45:46;;;;;;;4.07;3.47;;;;;;;23.79;75.25;100739.16;5051031;28;20466;-43
2023/08/26 10:48:14;;;;;;;3.93;3.60;;;;;;;23.53;66.45;100746.69;5052296;28;20426;-44
2023/08/26 10:50:43;;;;;;;3.73;3.53;;;;;;;23.60;71.94;100744.47;5052432;28;20853;-47
2023/08/26 10:53:16;;;;;;;6.43;3.50;;;;;;;23.69;72.48;100735.41;5049703;28;20451;-42
2023/08/26 10:55:44;;;;;;;3.73;3.63;;;;;;;23.55;73.72;100753.50;5043408;28;20474;-43
2023/08/26 10:58:16;;;;;;;7.33;3.60;;;;;;;23.47;72.67;100761.44;5055136;28;20458;-42
2023/08/26 11:00:46;;;;;;;4.40;2.93;;;;;;;23.49;71.24;100760.06;5062000;28;20441;-42
2023/08/26 11:03:15;;;;;;;3.10;2.90;;;;;;;23.55;72.36;100758.09;5051122;28;20459;-42
2023/08/26 11:05:44;;;;;;;3.57;3.37;;;;;;;23.60;72.23;100766.22;5059396;28;20446;-41